KEED/EED METAR and TAF weather

Enter ICAO airport designator
Station Type Date Time Source
KEED METAR 2018/07/19 06:56 UTC NOAA

KEED 190656Z AUTO 24010KT 10SM CLR 37/18 A2989 RMK AO2 SLP083 T03670183


Station Type Date Time Source
KEED Decoded METAR 2018/07/19 06:56 UTC NOAA

NEEDLES AIRPORT, CA, United States (KEED) 34-46N 114-37W
Jul 19, 2018 - 02:56 AM EDT / 2018.07.19 0656 UTC
Wind: from the WSW (240 degrees) at 12 MPH (10 KT):0
Visibility: 10 mile(s):0
Sky conditions: clear
Temperature: 98.1 F (36.7 C)
Heat index: 101.3 F (38.5 C):1
Dew Point: 64.9 F (18.3 C)
Relative Humidity: 34%
Pressure (altimeter): 29.89 in. Hg (1012 hPa)
ob: KEED 190656Z AUTO 24010KT 10SM CLR 37/18 A2989 RMK AO2 SLP083 T03670183
cycle: 7

Station Type Date Time Source
KEED TAF 2018/07/19 06:28 UTC NOAA

TAF KEED 190526Z 1906/2006 23010KT P6SM FEW100 BKN250
FM191000 VRB05KT P6SM FEW100
FM192000 21008KT P6SM FEW100


Example: see airport list